PWSweather.com
Personal Weather Stations
Station Observations
BELCONNEN
Charnwood, CanberraAU

CharnwoodCanberraAU

Lat: -35.201568, Lon: 149.040462

Elevation: 1968

Station Type: Vantage Pro2 with Solar and UV Sensors

http://belconnenweather.net

Latest ConditionsUpdated 11:40:02 PM GMT+10:10 Tuesday, Jan 23, 2018
Currently Today's Max Today's Min Today's Average
Temperature 71.1°F21.7°C 98.7°F37.1°C 69.7°F20.9°C 81.9°F27.7°C
Dew Point 62.4°F16.9°C 64.1°F17.8°C 54.0°F12.2°C 56.9°F13.8°C
Winds Calm Calm 9.2 mph N14.8 kmh N - 2.4 mph 3.9 kmh
Wind Gusts 1.2 mph1.9 kmh 15.0 mph24.1 kmh - -
Humidity 74% 77% 23% 46%
Pressure 29.82 in1009.8 mb 29.84 in1010.5 mb 29.70 in1005.8 mb -
Precipitation - 0.07 in1.8 mm - -
Hour Temp Dew Point Humidity Winds Wind Gusts Pressure Precip Precip Rate Daily Precip Total
11:40 PM 71.1°F21.7°C 62.4°F16.9°C 74% Calm Calm 1.2 mph1.9 kmh 29.82 in1009.8 mb - 0.00 in0.0 mm 0.07 in1.8 mm
11:30 PM 71.4°F21.9°C 62.3°F16.8°C 73% Calm Calm 1.2 mph1.9 kmh 29.82 in1009.8 mb - 0.00 in0.0 mm 0.07 in1.8 mm
11:20 PM 71.6°F22.0°C 62.5°F16.9°C 73% Calm Calm -- 29.81 in1009.5 mb - 0.00 in0.0 mm 0.07 in1.8 mm
11:10 PM 72.0°F22.2°C 62.5°F16.9°C 72% Calm Calm 1.2 mph1.9 kmh 29.82 in1009.8 mb - 0.00 in0.0 mm 0.07 in1.8 mm
11:00 PM 71.9°F22.2°C 60.8°F16.0°C 68% 2.3 mph SE3.7 kmh SE 3.5 mph5.6 kmh 29.81 in1009.5 mb - 0.00 in0.0 mm 0.07 in1.8 mm
10:50 PM 71.6°F22.0°C 60.5°F15.8°C 68% 4.6 mph SE7.4 kmh SE 6.9 mph11.1 kmh 29.82 in1009.8 mb - 0.00 in0.0 mm 0.07 in1.8 mm
10:40 PM 71.2°F21.8°C 61.3°F16.3°C 71% 3.5 mph ESE5.6 kmh ESE 8.1 mph13.0 kmh 29.81 in1009.5 mb - 0.00 in0.0 mm 0.07 in1.8 mm
10:30 PM 70.9°F21.6°C 61.8°F16.6°C 73% 3.5 mph ESE5.6 kmh ESE 3.5 mph5.6 kmh 29.81 in1009.5 mb - 0.00 in0.0 mm 0.07 in1.8 mm
10:20 PM 70.7°F21.5°C 61.2°F16.2°C 72% 3.5 mph SE5.6 kmh SE 4.6 mph7.4 kmh 29.82 in1009.8 mb - 0.00 in0.0 mm 0.07 in1.8 mm
10:10 PM 70.4°F21.3°C 62.1°F16.7°C 75% 5.8 mph SSE9.3 kmh SSE 10.4 mph16.7 kmh 29.82 in1009.8 mb - 0.00 in0.0 mm 0.07 in1.8 mm
10:00 PM 70.6°F21.4°C 63.1°F17.3°C 77% 3.5 mph S5.6 kmh S 4.6 mph7.4 kmh 29.82 in1009.8 mb - 0.00 in0.0 mm 0.07 in1.8 mm
09:50 PM 71.6°F22.0°C 64.0°F17.8°C 77% 1.2 mph SSE1.9 kmh SSE 3.5 mph5.6 kmh 29.84 in1010.5 mb - 0.00 in0.0 mm 0.07 in1.8 mm
09:40 PM 72.2°F22.3°C 63.0°F17.2°C 73% 2.3 mph SSE3.7 kmh SSE 3.5 mph5.6 kmh 29.82 in1009.8 mb - 0.00 in0.0 mm 0.07 in1.8 mm
09:30 PM 73.2°F22.9°C 62.4°F16.9°C 69% 4.6 mph SE7.4 kmh SE 8.1 mph13.0 kmh 29.80 in1009.1 mb - 0.00 in0.0 mm 0.07 in1.8 mm
09:20 PM 76.8°F24.9°C 63.3°F17.4°C 63% 5.8 mph ESE9.3 kmh ESE 9.2 mph14.8 kmh 29.81 in1009.5 mb - 0.03 in0.8 mm 0.07 in1.8 mm
09:10 PM 80.8°F27.1°C 64.1°F17.8°C 57% 1.2 mph S1.9 kmh S 3.5 mph5.6 kmh 29.82 in1009.8 mb - 0.06 in1.5 mm 0.06 in1.5 mm
09:00 PM 81.5°F27.5°C 57.5°F14.2°C 44% 2.3 mph SSE3.7 kmh SSE 5.8 mph9.3 kmh 29.82 in1009.8 mb - 0.00 in0.0 mm 0.00 in0.0 mm
08:50 PM 82.4°F28.0°C 57.0°F13.9°C 42% 2.3 mph SW3.7 kmh SW 3.5 mph5.6 kmh 29.81 in1009.5 mb - 0.00 in0.0 mm 0.00 in0.0 mm
08:40 PM 83.5°F28.6°C 56.7°F13.7°C 40% 3.5 mph SSE5.6 kmh SSE 6.9 mph11.1 kmh 29.80 in1009.1 mb - 0.00 in0.0 mm 0.00 in0.0 mm
08:30 PM 84.6°F29.2°C 55.4°F13.0°C 37% 2.3 mph S3.7 kmh S 3.5 mph5.6 kmh 29.80 in1009.1 mb - 0.00 in0.0 mm 0.00 in0.0 mm
08:20 PM 85.3°F29.6°C 56.1°F13.4°C 37% 2.3 mph W3.7 kmh W 5.8 mph9.3 kmh 29.79 in1008.8 mb - 0.00 in0.0 mm 0.00 in0.0 mm
08:10 PM 85.9°F29.9°C 55.1°F12.8°C 35% 2.3 mph SW3.7 kmh SW 4.6 mph7.4 kmh 29.78 in1008.5 mb - 0.00 in0.0 mm 0.00 in0.0 mm
08:00 PM 86.6°F30.3°C 56.4°F13.6°C 36% Calm Calm 2.3 mph3.7 kmh 29.76 in1007.8 mb - 0.00 in0.0 mm 0.00 in0.0 mm
07:50 PM 87.3°F30.7°C 55.5°F13.1°C 34% Calm Calm -- 29.74 in1007.1 mb - 0.00 in0.0 mm 0.00 in0.0 mm
07:40 PM 87.6°F30.9°C 54.9°F12.7°C 33% Calm Calm -- 29.74 in1007.1 mb - 0.00 in0.0 mm 0.00 in0.0 mm
07:30 PM 87.9°F31.1°C 55.2°F12.9°C 33% 1.2 mph N1.9 kmh N 1.2 mph1.9 kmh 29.73 in1006.8 mb - 0.00 in0.0 mm 0.00 in0.0 mm
07:20 PM 88.3°F31.3°C 54.7°F12.6°C 32% 2.3 mph N3.7 kmh N 3.5 mph5.6 kmh 29.73 in1006.8 mb - 0.00 in0.0 mm 0.00 in0.0 mm
07:10 PM 89.0°F31.7°C 55.3°F12.9°C 32% 4.6 mph N7.4 kmh N 6.9 mph11.1 kmh 29.72 in1006.4 mb - 0.00 in0.0 mm 0.00 in0.0 mm
07:00 PM 89.9°F32.2°C 56.1°F13.4°C 32% 1.2 mph N1.9 kmh N 2.3 mph3.7 kmh 29.71 in1006.1 mb - 0.00 in0.0 mm 0.00 in0.0 mm
06:50 PM 90.6°F32.6°C 56.7°F13.7°C 32% Calm Calm -- 29.71 in1006.1 mb - 0.00 in0.0 mm 0.00 in0.0 mm
06:40 PM 91.0°F32.8°C 56.2°F13.4°C 31% Calm Calm -- 29.71 in1006.1 mb - 0.00 in0.0 mm 0.00 in0.0 mm
06:30 PM 91.6°F33.1°C 55.7°F13.2°C 30% 1.2 mph N1.9 kmh N 3.5 mph5.6 kmh 29.71 in1006.1 mb - 0.00 in0.0 mm 0.00 in0.0 mm
06:20 PM 92.2°F33.4°C 55.4°F13.0°C 29% 3.5 mph NNE5.6 kmh NNE 3.5 mph5.6 kmh 29.71 in1006.1 mb - 0.00 in0.0 mm 0.00 in0.0 mm
06:10 PM 92.8°F33.8°C 55.9°F13.3°C 29% 4.6 mph N7.4 kmh N 8.1 mph13.0 kmh 29.70 in1005.8 mb - 0.00 in0.0 mm 0.00 in0.0 mm
06:00 PM 93.3°F34.1°C 55.3°F12.9°C 28% 4.6 mph N7.4 kmh N 8.1 mph13.0 kmh 29.70 in1005.8 mb - 0.00 in0.0 mm 0.00 in0.0 mm
05:50 PM 93.5°F34.2°C 54.5°F12.5°C 27% 4.6 mph NNW7.4 kmh NNW 10.4 mph16.7 kmh 29.70 in1005.8 mb - 0.00 in0.0 mm 0.00 in0.0 mm
05:40 PM 93.6°F34.2°C 54.6°F12.6°C 27% 3.5 mph N5.6 kmh N 5.8 mph9.3 kmh 29.70 in1005.8 mb - 0.00 in0.0 mm 0.00 in0.0 mm
05:30 PM 93.8°F34.3°C 54.8°F12.7°C 27% 5.8 mph NNW9.3 kmh NNW 10.4 mph16.7 kmh 29.70 in1005.8 mb - 0.00 in0.0 mm 0.00 in0.0 mm
05:20 PM 94.2°F34.6°C 55.1°F12.8°C 27% 9.2 mph N14.8 kmh N 12.7 mph20.4 kmh 29.70 in1005.8 mb - 0.00 in0.0 mm 0.00 in0.0 mm
05:10 PM 94.3°F34.6°C 55.2°F12.9°C 27% 5.8 mph N9.3 kmh N 9.2 mph14.8 kmh 29.70 in1005.8 mb - 0.00 in0.0 mm 0.00 in0.0 mm
05:00 PM 94.2°F34.6°C 54.1°F12.3°C 26% 8.1 mph N13.0 kmh N 11.5 mph18.5 kmh 29.70 in1005.8 mb - 0.00 in0.0 mm 0.00 in0.0 mm
04:50 PM 94.5°F34.7°C 54.3°F12.4°C 26% 6.9 mph N11.1 kmh N 10.4 mph16.7 kmh 29.70 in1005.8 mb - 0.00 in0.0 mm 0.00 in0.0 mm
04:40 PM 94.1°F34.5°C 55.0°F12.8°C 27% 4.6 mph N7.4 kmh N 11.5 mph18.5 kmh 29.70 in1005.8 mb - 0.00 in0.0 mm 0.00 in0.0 mm
04:30 PM 93.8°F34.3°C 54.8°F12.7°C 27% 5.8 mph NW9.3 kmh NW 5.8 mph9.3 kmh 29.70 in1005.8 mb - 0.00 in0.0 mm 0.00 in0.0 mm
04:20 PM 93.9°F34.4°C 54.8°F12.7°C 27% 5.8 mph N9.3 kmh N 11.5 mph18.5 kmh 29.70 in1005.8 mb - 0.00 in0.0 mm 0.00 in0.0 mm
04:10 PM 94.3°F34.6°C 54.1°F12.3°C 26% 5.8 mph NW9.3 kmh NW 9.2 mph14.8 kmh 29.70 in1005.8 mb - 0.00 in0.0 mm 0.00 in0.0 mm
04:00 PM 94.7°F34.8°C 54.5°F12.5°C 26% 4.6 mph N7.4 kmh N 11.5 mph18.5 kmh 29.70 in1005.8 mb - 0.00 in0.0 mm 0.00 in0.0 mm
03:50 PM 95.4°F35.2°C 54.0°F12.2°C 25% 4.6 mph NW7.4 kmh NW 10.4 mph16.7 kmh 29.70 in1005.8 mb - 0.00 in0.0 mm 0.00 in0.0 mm
03:40 PM 96.7°F35.9°C 55.1°F12.8°C 25% 3.5 mph NNE5.6 kmh NNE 9.2 mph14.8 kmh 29.70 in1005.8 mb - 0.00 in0.0 mm 0.00 in0.0 mm
03:30 PM 97.9°F36.6°C 55.0°F12.8°C 24% 2.3 mph NNW3.7 kmh NNW 8.1 mph13.0 kmh 29.70 in1005.8 mb - 0.00 in0.0 mm 0.00 in0.0 mm
03:20 PM 98.7°F37.1°C 54.5°F12.5°C 23% 3.5 mph WNW5.6 kmh WNW 4.6 mph7.4 kmh 29.70 in1005.8 mb - 0.00 in0.0 mm 0.00 in0.0 mm
03:10 PM 98.6°F37.0°C 55.6°F13.1°C 24% 4.6 mph WNW7.4 kmh WNW 9.2 mph14.8 kmh 29.71 in1006.1 mb - 0.00 in0.0 mm 0.00 in0.0 mm
03:00 PM 98.1°F36.7°C 56.3°F13.5°C 25% 3.5 mph NNW5.6 kmh NNW 11.5 mph18.5 kmh 29.71 in1006.1 mb - 0.00 in0.0 mm 0.00 in0.0 mm
02:50 PM 97.9°F36.6°C 56.1°F13.4°C 25% 2.3 mph NW3.7 kmh NW 3.5 mph5.6 kmh 29.71 in1006.1 mb - 0.00 in0.0 mm 0.00 in0.0 mm
02:40 PM 96.5°F35.8°C 54.9°F12.7°C 25% 3.5 mph N5.6 kmh N 5.8 mph9.3 kmh 29.71 in1006.1 mb - 0.00 in0.0 mm 0.00 in0.0 mm
02:30 PM 96.0°F35.6°C 54.5°F12.5°C 25% 4.6 mph WNW7.4 kmh WNW 6.9 mph11.1 kmh 29.72 in1006.4 mb - 0.00 in0.0 mm 0.00 in0.0 mm
02:20 PM 97.0°F36.1°C 55.4°F13.0°C 25% 5.8 mph NNW9.3 kmh NNW 11.5 mph18.5 kmh 29.72 in1006.4 mb - 0.00 in0.0 mm 0.00 in0.0 mm
02:10 PM 96.5°F35.8°C 54.9°F12.7°C 25% 5.8 mph NNW9.3 kmh NNW 10.4 mph16.7 kmh 29.73 in1006.8 mb - 0.00 in0.0 mm 0.00 in0.0 mm
02:00 PM 97.0°F36.1°C 55.3°F12.9°C 25% 3.5 mph WNW5.6 kmh WNW 4.6 mph7.4 kmh 29.73 in1006.8 mb - 0.00 in0.0 mm 0.00 in0.0 mm
01:50 PM 96.7°F35.9°C 55.1°F12.8°C 25% 5.8 mph NW9.3 kmh NW 11.5 mph18.5 kmh 29.73 in1006.8 mb - 0.00 in0.0 mm 0.00 in0.0 mm
01:40 PM 96.9°F36.1°C 55.3°F12.9°C 25% 6.9 mph N11.1 kmh N 12.7 mph20.4 kmh 29.73 in1006.8 mb - 0.00 in0.0 mm 0.00 in0.0 mm
01:30 PM 96.2°F35.7°C 55.8°F13.2°C 26% 3.5 mph WNW5.6 kmh WNW 6.9 mph11.1 kmh 29.74 in1007.1 mb - 0.00 in0.0 mm 0.00 in0.0 mm
01:20 PM 94.9°F34.9°C 55.7°F13.2°C 27% 5.8 mph NNW9.3 kmh NNW 11.5 mph18.5 kmh 29.75 in1007.5 mb - 0.00 in0.0 mm 0.00 in0.0 mm
01:10 PM 94.9°F34.9°C 56.7°F13.7°C 28% 5.8 mph N9.3 kmh N 10.4 mph16.7 kmh 29.75 in1007.5 mb - 0.00 in0.0 mm 0.00 in0.0 mm
01:00 PM 93.2°F34.0°C 56.2°F13.4°C 29% 4.6 mph NNW7.4 kmh NNW 11.5 mph18.5 kmh 29.75 in1007.5 mb - 0.00 in0.0 mm 0.00 in0.0 mm
12:50 PM 92.8°F33.8°C 56.8°F13.8°C 30% 4.6 mph N7.4 kmh N 8.1 mph13.0 kmh 29.75 in1007.5 mb - 0.00 in0.0 mm 0.00 in0.0 mm
12:40 PM 92.0°F33.3°C 57.0°F13.9°C 31% 4.6 mph NNW7.4 kmh NNW 9.2 mph14.8 kmh 29.76 in1007.8 mb - 0.00 in0.0 mm 0.00 in0.0 mm
12:30 PM 91.3°F32.9°C 56.4°F13.6°C 31% 3.5 mph N5.6 kmh N 3.5 mph5.6 kmh 29.76 in1007.8 mb - 0.00 in0.0 mm 0.00 in0.0 mm
12:20 PM 91.1°F32.8°C 57.1°F13.9°C 32% 4.6 mph NNW7.4 kmh NNW 8.1 mph13.0 kmh 29.76 in1007.8 mb - 0.00 in0.0 mm 0.00 in0.0 mm
12:10 PM 91.7°F33.2°C 56.8°F13.8°C 31% 4.6 mph NNW7.4 kmh NNW 9.2 mph14.8 kmh 29.77 in1008.1 mb - 0.00 in0.0 mm 0.00 in0.0 mm
12:00 PM 92.0°F33.3°C 57.0°F13.9°C 31% 8.1 mph N13.0 kmh N 11.5 mph18.5 kmh 29.77 in1008.1 mb - 0.00 in0.0 mm 0.00 in0.0 mm
11:50 AM 91.8°F33.2°C 57.7°F14.3°C 32% 4.6 mph NNW7.4 kmh NNW 10.4 mph16.7 kmh 29.78 in1008.5 mb - 0.00 in0.0 mm 0.00 in0.0 mm
11:40 AM 91.1°F32.8°C 57.1°F13.9°C 32% 8.1 mph N13.0 kmh N 11.5 mph18.5 kmh 29.78 in1008.5 mb - 0.00 in0.0 mm 0.00 in0.0 mm
11:30 AM 90.3°F32.4°C 58.1°F14.5°C 34% 6.9 mph N11.1 kmh N 15.0 mph24.1 kmh 29.79 in1008.8 mb - 0.00 in0.0 mm 0.00 in0.0 mm
11:20 AM 90.7°F32.6°C 59.3°F15.2°C 35% 5.8 mph NNW9.3 kmh NNW 10.4 mph16.7 kmh 29.79 in1008.8 mb - 0.00 in0.0 mm 0.00 in0.0 mm
11:10 AM 89.3°F31.8°C 58.8°F14.9°C 36% 4.6 mph NW7.4 kmh NW 6.9 mph11.1 kmh 29.80 in1009.1 mb - 0.00 in0.0 mm 0.00 in0.0 mm
11:00 AM 88.1°F31.2°C 59.3°F15.2°C 38% 5.8 mph N9.3 kmh N 11.5 mph18.5 kmh 29.80 in1009.1 mb - 0.00 in0.0 mm 0.00 in0.0 mm
10:50 AM 87.0°F30.6°C 59.1°F15.1°C 39% 5.8 mph N9.3 kmh N 11.5 mph18.5 kmh 29.81 in1009.5 mb - 0.00 in0.0 mm 0.00 in0.0 mm
10:40 AM 86.0°F30.0°C 58.9°F14.9°C 40% 4.6 mph N7.4 kmh N 8.1 mph13.0 kmh 29.82 in1009.8 mb - 0.00 in0.0 mm 0.00 in0.0 mm
10:30 AM 85.4°F29.7°C 58.3°F14.6°C 40% 5.8 mph N9.3 kmh N 10.4 mph16.7 kmh 29.82 in1009.8 mb - 0.00 in0.0 mm 0.00 in0.0 mm
10:20 AM 85.7°F29.8°C 57.9°F14.4°C 39% 4.6 mph N7.4 kmh N 11.5 mph18.5 kmh 29.82 in1009.8 mb - 0.00 in0.0 mm 0.00 in0.0 mm
10:10 AM 85.5°F29.7°C 57.7°F14.3°C 39% 2.3 mph NNE3.7 kmh NNE 5.8 mph9.3 kmh 29.82 in1009.8 mb - 0.00 in0.0 mm 0.00 in0.0 mm
10:00 AM 84.6°F29.2°C 57.6°F14.2°C 40% 2.3 mph ESE3.7 kmh ESE 3.5 mph5.6 kmh 29.83 in1010.2 mb - 0.00 in0.0 mm 0.00 in0.0 mm
09:50 AM 84.2°F29.0°C 58.6°F14.8°C 42% 1.2 mph ESE1.9 kmh ESE 1.2 mph1.9 kmh 29.83 in1010.2 mb - 0.00 in0.0 mm 0.00 in0.0 mm
09:40 AM 81.3°F27.4°C 58.5°F14.7°C 46% 1.2 mph SE1.9 kmh SE 3.5 mph5.6 kmh 29.83 in1010.2 mb - 0.00 in0.0 mm 0.00 in0.0 mm
09:30 AM 79.4°F26.3°C 58.0°F14.4°C 48% 1.2 mph SE1.9 kmh SE 2.3 mph3.7 kmh 29.83 in1010.2 mb - 0.00 in0.0 mm 0.00 in0.0 mm
09:20 AM 78.8°F26.0°C 58.0°F14.4°C 49% Calm Calm -- 29.84 in1010.5 mb - 0.00 in0.0 mm 0.00 in0.0 mm
09:10 AM 78.1°F25.6°C 57.9°F14.4°C 50% Calm Calm 2.3 mph3.7 kmh 29.84 in1010.5 mb - 0.00 in0.0 mm 0.00 in0.0 mm
09:00 AM 77.7°F25.4°C 58.7°F14.8°C 52% Calm Calm -- 29.84 in1010.5 mb - 0.00 in0.0 mm 0.00 in0.0 mm
08:50 AM 77.3°F25.2°C 57.8°F14.3°C 51% 1.2 mph SE1.9 kmh SE 2.3 mph3.7 kmh 29.84 in1010.5 mb - 0.00 in0.0 mm 0.00 in0.0 mm
08:40 AM 77.0°F25.0°C 58.0°F14.4°C 52% Calm Calm -- 29.84 in1010.5 mb - 0.00 in0.0 mm 0.00 in0.0 mm
08:30 AM 76.6°F24.8°C 57.7°F14.3°C 52% Calm Calm 1.2 mph1.9 kmh 29.83 in1010.2 mb - 0.00 in0.0 mm 0.00 in0.0 mm
08:20 AM 76.2°F24.6°C 58.3°F14.6°C 54% Calm Calm -- 29.83 in1010.2 mb - 0.00 in0.0 mm 0.00 in0.0 mm
08:10 AM 75.8°F24.3°C 58.0°F14.4°C 54% Calm Calm -- 29.83 in1010.2 mb - 0.00 in0.0 mm 0.00 in0.0 mm
08:00 AM 75.3°F24.1°C 58.0°F14.4°C 55% Calm Calm -- 29.83 in1010.2 mb - 0.00 in0.0 mm 0.00 in0.0 mm
07:50 AM 75.0°F23.9°C 58.2°F14.6°C 56% Calm Calm -- 29.83 in1010.2 mb - 0.00 in0.0 mm 0.00 in0.0 mm
07:40 AM 74.8°F23.8°C 58.5°F14.7°C 57% Calm Calm -- 29.83 in1010.2 mb - 0.00 in0.0 mm 0.00 in0.0 mm
07:30 AM 74.7°F23.7°C 58.0°F14.4°C 56% Calm Calm -- 29.82 in1009.8 mb - 0.00 in0.0 mm 0.00 in0.0 mm
07:20 AM 74.7°F23.7°C 58.9°F14.9°C 58% Calm Calm -- 29.82 in1009.8 mb - 0.00 in0.0 mm 0.00 in0.0 mm
07:10 AM 74.7°F23.7°C 58.5°F14.7°C 57% Calm Calm 1.2 mph1.9 kmh 29.82 in1009.8 mb - 0.00 in0.0 mm 0.00 in0.0 mm
07:00 AM 74.8°F23.8°C 58.5°F14.7°C 57% 1.2 mph SE1.9 kmh SE 3.5 mph5.6 kmh 29.81 in1009.5 mb - 0.00 in0.0 mm 0.00 in0.0 mm
06:50 AM 74.7°F23.7°C 58.0°F14.4°C 56% Calm Calm -- 29.80 in1009.1 mb - 0.00 in0.0 mm 0.00 in0.0 mm
06:40 AM 74.4°F23.6°C 56.7°F13.7°C 54% Calm Calm 1.2 mph1.9 kmh 29.80 in1009.1 mb - 0.00 in0.0 mm 0.00 in0.0 mm
06:30 AM 73.9°F23.3°C 55.7°F13.2°C 53% 2.3 mph SE3.7 kmh SE 3.5 mph5.6 kmh 29.79 in1008.8 mb - 0.00 in0.0 mm 0.00 in0.0 mm
06:20 AM 73.3°F22.9°C 55.1°F12.8°C 53% 2.3 mph SE3.7 kmh SE 4.6 mph7.4 kmh 29.79 in1008.8 mb - 0.00 in0.0 mm 0.00 in0.0 mm
06:10 AM 72.5°F22.5°C 54.9°F12.7°C 54% 1.2 mph SE1.9 kmh SE 2.3 mph3.7 kmh 29.79 in1008.8 mb - 0.00 in0.0 mm 0.00 in0.0 mm
06:00 AM 71.6°F22.0°C 54.6°F12.6°C 55% 2.3 mph SE3.7 kmh SE 3.5 mph5.6 kmh 29.79 in1008.8 mb - 0.00 in0.0 mm 0.00 in0.0 mm
05:50 AM 70.8°F21.6°C 54.8°F12.7°C 57% 1.2 mph WSW1.9 kmh WSW 3.5 mph5.6 kmh 29.79 in1008.8 mb - 0.00 in0.0 mm 0.00 in0.0 mm
05:40 AM 70.3°F21.3°C 54.8°F12.7°C 58% 1.2 mph WSW1.9 kmh WSW 2.3 mph3.7 kmh 29.79 in1008.8 mb - 0.00 in0.0 mm 0.00 in0.0 mm
05:30 AM 70.1°F21.2°C 55.6°F13.1°C 60% 1.2 mph WSW1.9 kmh WSW 3.5 mph5.6 kmh 29.79 in1008.8 mb - 0.00 in0.0 mm 0.00 in0.0 mm
05:20 AM 70.2°F21.2°C 56.6°F13.7°C 62% Calm Calm -- 29.79 in1008.8 mb - 0.00 in0.0 mm 0.00 in0.0 mm
05:10 AM 70.2°F21.2°C 56.1°F13.4°C 61% Calm Calm -- 29.77 in1008.1 mb - 0.00 in0.0 mm 0.00 in0.0 mm
05:00 AM 70.2°F21.2°C 56.1°F13.4°C 61% Calm Calm -- 29.77 in1008.1 mb - 0.00 in0.0 mm 0.00 in0.0 mm
04:50 AM 70.1°F21.2°C 56.0°F13.3°C 61% Calm Calm -- 29.77 in1008.1 mb - 0.00 in0.0 mm 0.00 in0.0 mm
04:40 AM 70.1°F21.2°C 56.0°F13.3°C 61% Calm Calm -- 29.77 in1008.1 mb - 0.00 in0.0 mm 0.00 in0.0 mm
04:30 AM 70.0°F21.1°C 56.4°F13.6°C 62% Calm Calm -- 29.77 in1008.1 mb - 0.00 in0.0 mm 0.00 in0.0 mm
04:20 AM 69.8°F21.0°C 55.8°F13.2°C 61% Calm Calm -- 29.75 in1007.5 mb - 0.00 in0.0 mm 0.00 in0.0 mm
04:10 AM 69.7°F20.9°C 56.1°F13.4°C 62% Calm Calm 1.2 mph1.9 kmh 29.75 in1007.5 mb - 0.00 in0.0 mm 0.00 in0.0 mm
04:00 AM 69.8°F21.0°C 57.1°F13.9°C 64% Calm Calm -- 29.76 in1007.8 mb - 0.00 in0.0 mm 0.00 in0.0 mm
03:50 AM 69.8°F21.0°C 56.6°F13.7°C 63% Calm Calm -- 29.75 in1007.5 mb - 0.00 in0.0 mm 0.00 in0.0 mm
03:40 AM 69.9°F21.1°C 56.7°F13.7°C 63% Calm Calm -- 29.75 in1007.5 mb - 0.00 in0.0 mm 0.00 in0.0 mm
03:30 AM 69.9°F21.1°C 56.7°F13.7°C 63% Calm Calm -- 29.75 in1007.5 mb - 0.00 in0.0 mm 0.00 in0.0 mm
03:20 AM 70.1°F21.2°C 56.5°F13.6°C 62% Calm Calm -- 29.75 in1007.5 mb - 0.00 in0.0 mm 0.00 in0.0 mm
03:10 AM 70.3°F21.3°C 56.6°F13.7°C 62% Calm Calm -- 29.75 in1007.5 mb - 0.00 in0.0 mm 0.00 in0.0 mm
03:00 AM 70.6°F21.4°C 56.5°F13.6°C 61% Calm Calm -- 29.75 in1007.5 mb - 0.00 in0.0 mm 0.00 in0.0 mm
02:50 AM 71.0°F21.7°C 56.4°F13.6°C 60% Calm Calm -- 29.75 in1007.5 mb - 0.00 in0.0 mm 0.00 in0.0 mm
02:40 AM 71.5°F21.9°C 56.4°F13.6°C 59% Calm Calm -- 29.75 in1007.5 mb - 0.00 in0.0 mm 0.00 in0.0 mm
02:30 AM 71.8°F22.1°C 56.2°F13.4°C 58% Calm Calm -- 29.75 in1007.5 mb - 0.00 in0.0 mm 0.00 in0.0 mm
02:20 AM 72.1°F22.3°C 56.0°F13.3°C 57% Calm Calm -- 29.75 in1007.5 mb - 0.00 in0.0 mm 0.00 in0.0 mm
02:10 AM 72.3°F22.4°C 55.7°F13.2°C 56% Calm Calm -- 29.75 in1007.5 mb - 0.00 in0.0 mm 0.00 in0.0 mm
02:00 AM 72.5°F22.5°C 55.9°F13.3°C 56% Calm Calm -- 29.76 in1007.8 mb - 0.00 in0.0 mm 0.00 in0.0 mm
01:50 AM 72.7°F22.6°C 55.1°F12.8°C 54% Calm Calm -- 29.76 in1007.8 mb - 0.00 in0.0 mm 0.00 in0.0 mm
01:40 AM 72.9°F22.7°C 55.3°F12.9°C 54% Calm Calm -- 29.76 in1007.8 mb - 0.00 in0.0 mm 0.00 in0.0 mm
01:30 AM 73.1°F22.8°C 54.9°F12.7°C 53% Calm Calm -- 29.77 in1008.1 mb - 0.00 in0.0 mm 0.00 in0.0 mm
01:20 AM 73.4°F23.0°C 55.2°F12.9°C 53% Calm Calm 1.2 mph1.9 kmh 29.77 in1008.1 mb - 0.00 in0.0 mm 0.00 in0.0 mm
01:10 AM 73.7°F23.2°C 55.0°F12.8°C 52% Calm Calm -- 29.77 in1008.1 mb - 0.00 in0.0 mm 0.00 in0.0 mm
01:00 AM 74.0°F23.3°C 54.7°F12.6°C 51% Calm Calm 1.2 mph1.9 kmh 29.78 in1008.5 mb - 0.00 in0.0 mm 0.00 in0.0 mm
12:50 AM 74.4°F23.6°C 55.6°F13.1°C 52% Calm Calm -- 29.78 in1008.5 mb - 0.00 in0.0 mm 0.00 in0.0 mm
12:40 AM 74.8°F23.8°C 54.9°F12.7°C 50% Calm Calm -- 29.79 in1008.8 mb - 0.00 in0.0 mm 0.00 in0.0 mm
12:30 AM 75.2°F24.0°C 55.3°F12.9°C 50% Calm Calm -- 29.79 in1008.8 mb - 0.00 in0.0 mm 0.00 in0.0 mm
12:20 AM 75.6°F24.2°C 55.1°F12.8°C 49% Calm Calm 1.2 mph1.9 kmh 29.79 in1008.8 mb - 0.00 in0.0 mm 0.00 in0.0 mm
12:10 AM 76.4°F24.7°C 55.2°F12.9°C 48% Calm Calm -- 29.80 in1009.1 mb - 0.00 in0.0 mm 0.00 in0.0 mm
12:00 AM 77.1°F25.1°C 54.7°F12.6°C 46% Calm Calm -- 29.79 in1008.8 mb - 0.00 in0.0 mm 0.00 in0.0 mm